Bookmark and Share
Track history (hours):
 

Eizo Maru

Last reported at 2014-Apr-24 02:33 UTC. Time now 2014-Apr-24 09:32 UTC.
Position N 34°33' E 135°26'.

Length 80 m; draft 4 m.

Type: Tanker. MMSI: 431000976.

NotesDate/timePositionNaut miles runAvg speedWind from/ knotsBaromVisibWave heightAir tempDewpointWater temp
2014-Apr-24 02:33N 34°33' E 135°26'2 1.7
2014-Apr-24 01:32N 34°33' E 135°24'4 3.7
2014-Apr-24 00:32N 34°32' E 135°19'0 0.0
2014-Apr-23 23:33N 34°32' E 135°19'0 0.1
2014-Apr-23 22:33N 34°32' E 135°19'0 0.0
2014-Apr-23 21:33N 34°32' E 135°19'0 0.0
2014-Apr-23 20:26N 34°32' E 135°19'0 0.0
2014-Apr-23 19:33N 34°32' E 135°19'0 0.0
2014-Apr-23 18:33N 34°32' E 135°19'0 0.0
2014-Apr-23 17:33N 34°32' E 135°19'0 0.0
2014-Apr-23 16:33N 34°32' E 135°19'0 0.0
2014-Apr-23 15:33N 34°32' E 135°19'0 0.0
2014-Apr-23 14:32N 34°32' E 135°19'0 0.0
2014-Apr-23 13:33N 34°32' E 135°19'0 0.1
2014-Apr-23 12:33N 34°32' E 135°19'0 0.0
2014-Apr-23 11:33N 34°32' E 135°19'0 0.0
2014-Apr-23 10:33N 34°32' E 135°19'0 0.0
2014-Apr-23 09:33N 34°32' E 135°19'0 0.0
2014-Apr-23 08:33N 34°32' E 135°19'0 0.0
2014-Apr-23 07:33N 34°32' E 135°19'0 0.0
2014-Apr-23 06:33N 34°32' E 135°19'1010.3
2014-Apr-23 05:33N 34°26' E 135°10'198 9.3
2014-Apr-22 08:18N 34°49' E 139°09'2212.9
2014-Apr-22 06:33N 35°02' E 139°31'1313.2
2014-Apr-22 05:33N 35°10' E 139°44'1212.1
2014-Apr-22 04:33N 35°22' E 139°42'10 8.8
2014-Apr-22 03:24N 35°32' E 139°46'0 0.0
2014-Apr-22 02:30N 35°32' E 139°46'0 0.0
2014-Apr-22 01:30N 35°32' E 139°46'0 0.0
2014-Apr-22 00:30N 35°32' E 139°46'0 0.0
2014-Apr-21 23:12N 35°32' E 139°46'0 0.0
2014-Apr-21 22:30N 35°32' E 139°46'3 3.5
2014-Apr-21 21:33N 35°30' E 139°49'1 0.7
2014-Apr-21 20:26N 35°30' E 139°50'0 0.0
2014-Apr-21 19:29N 35°30' E 139°50'0 0.0
2014-Apr-21 18:32N 35°30' E 139°50'0 0.0
2014-Apr-21 17:29N 35°30' E 139°50'0 0.0
2014-Apr-21 16:29N 35°30' E 139°50'0 0.0
2014-Apr-21 15:32N 35°30' E 139°50'0 0.0
2014-Apr-21 14:32N 35°30' E 139°50'0 0.0
2014-Apr-21 13:32N 35°30' E 139°50'0 0.0
2014-Apr-21 12:29N 35°30' E 139°50'0 0.0
2014-Apr-21 11:32N 35°30' E 139°50'0 0.0
2014-Apr-21 10:32N 35°30' E 139°50'0 0.0
2014-Apr-21 09:32N 35°30' E 139°50'0 0.0
2014-Apr-21 08:32N 35°30' E 139°50'6 6.5
2014-Apr-21 07:33N 35°32' E 139°58'3 2.6
2014-Apr-21 06:33N 35°32' E 140°01'0 0.0
2014-Apr-21 05:33N 35°32' E 140°01'1 1.5
2014-Apr-21 04:33N 35°31' E 140°03'0 0.0
2014-Apr-21 03:33N 35°31' E 140°03'0 0.0
2014-Apr-21 02:33N 35°31' E 140°03'0 0.0
2014-Apr-21 01:33N 35°31' E 140°03'0 0.0
2014-Apr-21 00:33N 35°31' E 140°03'0 0.0
2014-Apr-20 23:33N 35°31' E 140°03'3 2.4
2014-Apr-20 22:19N 35°32' E 139°59'0 0.0
2014-Apr-20 21:31N 35°32' E 139°59'0 0.0
2014-Apr-20 20:31N 35°32' E 139°59'0 0.0
2014-Apr-20 19:25N 35°32' E 139°59'0 0.0
2014-Apr-20 18:31N 35°32' E 139°59'0 0.0
2014-Apr-20 17:31N 35°32' E 139°59'5 4.7
2014-Apr-20 16:33N 35°30' E 139°54'1212.4
2014-Apr-20 15:33N 35°20' E 139°44'1212.1
2014-Apr-20 14:33N 35°08' E 139°46'1413.7
2014-Apr-20 13:33N 34°59' E 139°34'229 7.1
2014-Apr-19 05:24N 34°07' E 135°04'3 0.1
2014-Apr-17 19:21N 34°07' E 135°08'6 0.6
2014-Apr-17 09:34N 34°12' E 135°04'13 9.9
2014-Apr-17 08:18N 34°24' E 135°05'1113.5
2014-Apr-17 07:31N 34°30' E 135°15'9 1.2
2014-Apr-17 00:11N 34°33' E 135°26'5 7.3
2014-Apr-16 23:32N 34°33' E 135°20'1212.7
2014-Apr-16 22:33N 34°26' E 135°08'1413.4
2014-Apr-16 21:29N 34°14' E 134°59'  

Dump ship's entire track history

sailing weather and tide predictions

Eizo Maru — JD2944 — position and weather